createdAt,value
2023-05-07T00:02:22.618Z,19.30
2023-05-07T00:04:50.295Z,21.10
2023-05-07T00:07:18.435Z,20.13
2023-05-07T00:09:46.140Z,33.53
2023-05-07T00:12:13.704Z,24.00
2023-05-07T00:14:41.574Z,23.50
2023-05-07T00:17:09.153Z,42.35
2023-05-07T00:19:37.142Z,105.00
2023-05-07T00:22:04.619Z,84.72
2023-05-07T00:24:32.205Z,103.93
2023-05-07T00:26:59.678Z,78.93
2023-05-07T00:29:27.240Z,18.88
2023-05-07T00:31:55.975Z,74.72
2023-05-07T00:34:24.126Z,71.80
2023-05-07T00:36:51.638Z,86.57
2023-05-07T00:39:19.129Z,111.03
2023-05-07T00:41:47.179Z,76.00
2023-05-07T00:44:15.479Z,76.82
2023-05-07T00:46:43.644Z,87.80
2023-05-07T00:49:11.863Z,47.20
2023-05-07T00:51:39.356Z,40.63
2023-05-07T00:54:07.016Z,47.45
2023-05-07T00:56:35.489Z,23.90
2023-05-07T00:59:04.272Z,31.25
2023-05-07T01:01:32.683Z,32.35
2023-05-07T01:04:00.563Z,44.83
2023-05-07T01:06:30.646Z,19.63
2023-05-07T01:08:59.263Z,19.38
2023-05-07T01:11:27.384Z,20.25
2023-05-07T01:13:56.038Z,20.02
2023-05-07T01:16:24.258Z,21.27
2023-05-07T01:18:52.000Z,82.72
2023-05-07T01:21:20.105Z,92.68
2023-05-07T01:23:48.462Z,22.17
2023-05-07T01:26:16.167Z,22.30
2023-05-07T01:28:47.097Z,102.18
2023-05-07T01:31:15.431Z,110.32
2023-05-07T01:33:45.869Z,127.75
2023-05-07T01:36:15.444Z,106.57
2023-05-07T01:38:43.583Z,143.68
2023-05-07T01:41:12.620Z,106.28
2023-05-07T01:43:42.457Z,73.55
2023-05-07T01:46:11.516Z,113.47
2023-05-07T01:48:40.734Z,133.40
2023-05-07T01:51:10.129Z,93.03
2023-05-07T01:53:38.454Z,114.05
2023-05-07T01:56:06.513Z,103.00
2023-05-07T01:58:35.838Z,128.40
2023-05-07T02:01:03.443Z,20.17
2023-05-07T02:03:31.943Z,116.90
2023-05-07T02:06:08.705Z,55.37
2023-05-07T02:08:40.138Z,81.72
2023-05-07T02:11:07.819Z,92.95
2023-05-07T02:13:37.671Z,120.00
2023-05-07T02:16:06.812Z,111.18
2023-05-07T02:18:34.837Z,135.23
2023-05-07T02:21:02.370Z,109.43
2023-05-07T02:23:29.905Z,77.35
2023-05-07T02:25:57.923Z,101.07
2023-05-07T02:28:25.519Z,95.00
2023-05-07T02:30:59.666Z,82.18
2023-05-07T02:33:27.614Z,75.38
2023-05-07T02:35:55.705Z,79.35
2023-05-07T02:38:23.846Z,74.93
2023-05-07T02:40:51.500Z,76.93
2023-05-07T02:43:19.464Z,90.18
2023-05-07T02:45:49.282Z,102.03
2023-05-07T02:48:17.134Z,67.53
2023-05-07T02:50:45.192Z,69.30
2023-05-07T02:53:15.532Z,93.50
2023-05-07T02:55:43.475Z,67.45
2023-05-07T02:58:11.004Z,72.50
2023-05-07T03:00:41.332Z,68.53
2023-05-07T03:03:20.095Z,78.80
2023-05-07T03:05:48.406Z,78.07
2023-05-07T03:08:16.508Z,88.73
2023-05-07T03:10:44.454Z,92.95
2023-05-07T03:13:12.225Z,92.50
2023-05-07T03:15:40.525Z,120.97
2023-05-07T03:18:08.390Z,91.65
2023-05-07T03:20:37.500Z,77.50
2023-05-07T03:23:05.349Z,79.93
2023-05-07T03:25:33.418Z,112.77
2023-05-07T03:28:01.570Z,106.22
2023-05-07T03:30:38.511Z,86.05
2023-05-07T03:33:06.540Z,81.78
2023-05-07T03:35:34.735Z,77.73
2023-05-07T03:38:02.588Z,71.85
2023-05-07T03:40:33.392Z,88.95
2023-05-07T03:43:02.044Z,68.10
2023-05-07T03:45:31.937Z,69.03
2023-05-07T03:48:08.911Z,87.30
2023-05-07T03:50:37.252Z,111.22
2023-05-07T03:53:04.771Z,89.03
2023-05-07T03:55:36.705Z,117.43
2023-05-07T03:58:04.239Z,160.65
2023-05-07T04:00:34.701Z,136.77
2023-05-07T04:03:02.879Z,152.68
2023-05-07T04:05:32.457Z,127.32
2023-05-07T04:08:03.468Z,107.90
2023-05-07T04:10:42.760Z,104.88
2023-05-07T04:13:12.705Z,116.73
2023-05-07T04:15:40.385Z,89.95
2023-05-07T04:18:13.797Z,107.43
2023-05-07T04:20:45.521Z,108.00
2023-05-07T04:23:16.299Z,117.95
2023-05-07T04:25:44.442Z,98.15
2023-05-07T04:28:21.680Z,97.63
2023-05-07T04:30:50.136Z,187.73
2023-05-07T04:33:18.408Z,159.07
2023-05-07T04:35:47.285Z,154.93
2023-05-07T04:38:15.331Z,160.07
2023-05-07T04:40:43.646Z,152.00
2023-05-07T04:43:15.229Z,136.70
2023-05-07T04:45:47.685Z,136.43
2023-05-07T04:48:17.172Z,114.00
2023-05-07T04:50:45.274Z,132.25
2023-05-07T04:53:15.194Z,132.32
2023-05-07T04:55:42.756Z,123.32
2023-05-07T04:58:10.654Z,108.00
2023-05-07T05:00:41.138Z,119.35
2023-05-07T05:03:09.164Z,96.88
2023-05-07T05:05:39.174Z,92.65
2023-05-07T05:08:07.306Z,89.97
2023-05-07T05:10:37.559Z,110.82
2023-05-07T05:13:07.095Z,81.07
2023-05-07T05:15:35.178Z,103.10
2023-05-07T05:18:04.158Z,107.28
2023-05-07T05:20:32.596Z,105.97
2023-05-07T05:23:00.160Z,110.65
2023-05-07T05:25:28.687Z,120.97
2023-05-07T05:27:57.619Z,117.72
2023-05-07T05:30:25.721Z,115.13
2023-05-07T05:32:53.454Z,103.80
2023-05-07T05:35:21.051Z,101.03
2023-05-07T05:37:49.273Z,96.10
2023-05-07T05:40:18.518Z,84.28
2023-05-07T05:42:47.491Z,101.32
2023-05-07T05:45:15.781Z,99.75
2023-05-07T05:47:43.748Z,59.53
2023-05-07T05:50:11.667Z,83.82
2023-05-07T05:52:39.584Z,73.50
2023-05-07T05:55:07.688Z,92.87
2023-05-07T05:57:37.434Z,73.10
2023-05-07T06:00:05.706Z,72.32
2023-05-07T06:02:35.290Z,44.97
2023-05-07T06:05:05.138Z,43.95
2023-05-07T06:07:32.846Z,65.72
2023-05-07T06:10:00.350Z,34.03
2023-05-07T06:12:29.511Z,49.85
2023-05-07T06:14:57.406Z,43.90
2023-05-07T06:17:25.993Z,37.55
2023-05-07T06:19:54.053Z,29.92
2023-05-07T06:22:22.343Z,25.65
2023-05-07T06:24:50.348Z,28.97
2023-05-07T06:27:18.009Z,25.60
2023-05-07T06:29:46.546Z,30.42
2023-05-07T06:32:18.164Z,26.23
2023-05-07T06:34:47.314Z,29.52
2023-05-07T06:37:16.163Z,33.08
2023-05-07T06:40:13.736Z,25.25
2023-05-07T06:42:43.319Z,22.52
2023-05-07T06:45:29.933Z,21.08
2023-05-07T06:47:58.841Z,20.67
2023-05-07T06:50:27.985Z,25.23
2023-05-07T06:52:58.652Z,33.20
2023-05-07T06:55:27.035Z,25.47
2023-05-07T06:57:56.534Z,22.80
2023-05-07T07:00:26.140Z,21.42
2023-05-07T07:02:57.024Z,21.42
2023-05-07T07:05:28.262Z,23.98
2023-05-07T07:07:57.167Z,29.90
2023-05-07T07:10:25.624Z,25.52
2023-05-07T07:12:55.107Z,24.98
2023-05-07T07:15:25.987Z,54.80
2023-05-07T07:17:54.939Z,100.32
2023-05-07T07:20:24.324Z,80.75
2023-05-07T07:22:52.402Z,69.10
2023-05-07T07:25:20.122Z,36.17
2023-05-07T07:27:50.542Z,46.53
2023-05-07T07:30:18.500Z,33.35
2023-05-07T07:32:49.593Z,22.50
2023-05-07T07:35:17.478Z,23.08
2023-05-07T07:37:46.445Z,23.13
2023-05-07T07:40:15.798Z,23.10
2023-05-07T07:42:44.483Z,21.83
2023-05-07T07:45:13.459Z,20.80
2023-05-07T07:47:46.189Z,20.33
2023-05-07T07:50:21.955Z,20.60
2023-05-07T07:53:01.482Z,19.25
2023-05-07T07:55:29.998Z,18.60
2023-05-07T07:57:57.669Z,19.88
2023-05-07T08:00:26.173Z,19.65
2023-05-07T08:02:57.478Z,17.98
2023-05-07T08:05:30.716Z,16.60
2023-05-07T08:07:59.751Z,17.63
2023-05-07T08:10:35.632Z,17.50
2023-05-07T08:13:09.145Z,18.85
2023-05-07T08:15:39.040Z,18.10
2023-05-07T08:18:07.370Z,18.13
2023-05-07T08:20:40.397Z,18.73
2023-05-07T08:23:11.138Z,17.33
2023-05-07T08:25:41.171Z,17.95
2023-05-07T08:28:10.203Z,17.73
2023-05-07T08:30:39.604Z,17.35
2023-05-07T08:33:07.620Z,17.48
2023-05-07T08:35:35.262Z,16.75
2023-05-07T08:38:03.552Z,14.77
2023-05-07T08:40:39.959Z,15.10
2023-05-07T08:43:14.390Z,14.53
2023-05-07T08:45:43.240Z,13.73
2023-05-07T08:48:18.351Z,14.95
2023-05-07T08:50:53.112Z,17.52
2023-05-07T08:53:24.587Z,15.03
2023-05-07T08:55:54.575Z,17.00
2023-05-07T08:58:22.307Z,15.93
2023-05-07T09:00:53.234Z,15.45
2023-05-07T09:03:22.250Z,14.57
2023-05-07T09:05:52.572Z,15.07
2023-05-07T09:08:27.510Z,15.07
2023-05-07T09:10:57.393Z,13.70
2023-05-07T09:13:25.910Z,13.65
2023-05-07T09:15:53.865Z,11.93
2023-05-07T09:18:23.000Z,11.75
2023-05-07T09:20:52.035Z,9.90
2023-05-07T09:23:22.088Z,11.88
2023-05-07T09:25:49.906Z,11.18
2023-05-07T09:28:25.554Z,9.88
2023-05-07T09:30:54.018Z,12.27
2023-05-07T09:33:21.914Z,12.27
2023-05-07T09:35:53.530Z,364.85
2023-05-07T09:38:22.750Z,12.32
2023-05-07T09:41:08.115Z,12.23
2023-05-07T09:43:42.612Z,12.70
2023-05-07T09:46:16.355Z,13.48
2023-05-07T09:48:53.562Z,13.25
2023-05-07T09:51:35.153Z,13.25
2023-05-07T09:54:04.466Z,15.13
2023-05-07T09:56:35.527Z,14.70
2023-05-07T09:59:05.074Z,15.07
2023-05-07T10:01:37.136Z,15.55
2023-05-07T10:04:06.570Z,15.43
2023-05-07T10:06:35.993Z,13.43
2023-05-07T10:09:06.652Z,11.40
2023-05-07T10:11:36.313Z,796.38
2023-05-07T10:14:06.886Z,11.70
2023-05-07T10:16:37.744Z,15.80
2023-05-07T10:19:11.192Z,14.35
2023-05-07T10:21:45.667Z,13.73
2023-05-07T10:24:37.785Z,11.90
2023-05-07T10:27:15.480Z,12.57
2023-05-07T10:30:16.848Z,741.72
2023-05-07T10:32:54.110Z,11.82
2023-05-07T10:35:33.812Z,11.10
2023-05-07T10:38:05.066Z,12.45
2023-05-07T10:40:36.865Z,999.90
2023-05-07T10:43:10.026Z,10.07
2023-05-07T10:46:19.625Z,999.45
2023-05-07T10:49:07.328Z,10.43
2023-05-07T10:52:21.725Z,10.38
2023-05-07T10:55:22.788Z,670.13
2023-05-07T10:58:31.439Z,9.50
2023-05-07T11:01:57.186Z,212.80
2023-05-07T11:04:39.995Z,11.02
2023-05-07T11:07:28.230Z,9.80
2023-05-07T11:10:02.684Z,10.32
2023-05-07T11:12:57.521Z,9.80
2023-05-07T11:15:44.407Z,9.98
2023-05-07T11:18:53.769Z,8.65
2023-05-07T11:21:42.199Z,50.83
2023-05-07T11:24:42.080Z,8.90
2023-05-07T11:27:10.360Z,9.18
2023-05-07T11:29:38.188Z,7.55
2023-05-07T11:32:13.840Z,9.07
2023-05-07T11:34:57.241Z,8.35
2023-05-07T11:37:28.530Z,8.02
2023-05-07T11:40:10.479Z,7.03
2023-05-07T11:42:42.228Z,29.23
2023-05-07T11:45:11.271Z,277.38
2023-05-07T11:47:39.342Z,238.23
2023-05-07T11:50:12.120Z,6.00
2023-05-07T11:52:40.382Z,8.40
2023-05-07T11:55:09.198Z,8.13
2023-05-07T11:57:36.967Z,292.50
2023-05-07T12:00:06.477Z,6.47
2023-05-07T12:02:46.714Z,68.57
2023-05-07T12:05:14.899Z,7.03
2023-05-07T12:07:42.734Z,5.93
2023-05-07T12:10:12.849Z,6.85
2023-05-07T12:12:43.072Z,6.32
2023-05-07T12:15:14.144Z,6.55
2023-05-07T12:17:41.991Z,6.35
2023-05-07T12:20:11.575Z,6.00
2023-05-07T12:22:39.785Z,6.65
2023-05-07T12:25:08.304Z,6.25
2023-05-07T12:27:40.094Z,8.20
2023-05-07T12:30:11.039Z,5.82
2023-05-07T12:32:38.652Z,96.55
2023-05-07T12:35:07.701Z,201.63
2023-05-07T12:37:39.970Z,6.60
2023-05-07T12:40:10.031Z,146.68
2023-05-07T12:42:39.531Z,5.40
2023-05-07T12:45:14.970Z,5.78
2023-05-07T12:47:49.596Z,48.83
2023-05-07T12:50:18.160Z,140.32
2023-05-07T12:52:48.032Z,13.82
2023-05-07T12:55:17.451Z,55.47
2023-05-07T12:57:54.653Z,5.97
2023-05-07T13:00:37.560Z,182.00
2023-05-07T13:03:06.168Z,6.10
2023-05-07T13:05:33.799Z,4.57
2023-05-07T13:08:02.917Z,4.47
2023-05-07T13:10:30.943Z,3.85
2023-05-07T13:12:58.643Z,6.00
2023-05-07T13:15:28.100Z,4.63
2023-05-07T13:17:56.620Z,5.60
2023-05-07T13:20:25.102Z,5.03
2023-05-07T13:22:52.746Z,4.45
2023-05-07T13:25:20.418Z,4.95
2023-05-07T13:27:53.986Z,14.50
2023-05-07T13:30:28.249Z,4.80
2023-05-07T13:32:57.398Z,5.03
2023-05-07T13:35:25.842Z,4.47
2023-05-07T13:37:53.913Z,80.90
2023-05-07T13:40:23.430Z,237.82
2023-05-07T13:42:52.049Z,4.32
2023-05-07T13:45:20.547Z,39.65
2023-05-07T13:47:50.608Z,12.68
2023-05-07T13:50:18.752Z,4.50
2023-05-07T13:52:51.784Z,4.57
2023-05-07T13:55:20.628Z,4.90
2023-05-07T13:57:49.181Z,138.80
2023-05-07T14:00:17.386Z,357.95
2023-05-07T14:02:45.578Z,4.78
2023-05-07T14:05:14.593Z,4.78
2023-05-07T14:07:42.182Z,5.97
2023-05-07T14:10:11.014Z,5.43
2023-05-07T14:12:39.393Z,4.70
2023-05-07T14:15:07.583Z,5.15
2023-05-07T14:17:35.239Z,4.63
2023-05-07T14:20:03.581Z,4.68
2023-05-07T14:22:31.595Z,6.57
2023-05-07T14:25:14.562Z,5.07
2023-05-07T14:27:44.601Z,5.60
2023-05-07T14:30:13.130Z,8.38
2023-05-07T14:32:40.706Z,4.67
2023-05-07T14:35:09.463Z,74.53
2023-05-07T14:37:37.142Z,4.70
2023-05-07T14:40:05.528Z,62.15
2023-05-07T14:42:33.118Z,4.93
2023-05-07T14:45:01.346Z,5.97
2023-05-07T14:47:28.937Z,5.35
2023-05-07T14:49:58.375Z,5.22
2023-05-07T14:52:27.086Z,6.20
2023-05-07T14:54:54.656Z,5.55
2023-05-07T14:57:22.705Z,4.55
2023-05-07T14:59:50.231Z,5.85
2023-05-07T15:02:21.207Z,5.72
2023-05-07T15:04:49.735Z,5.97
2023-05-07T15:07:17.429Z,5.28
2023-05-07T15:09:45.709Z,5.45
2023-05-07T15:12:13.600Z,4.90
2023-05-07T15:14:41.653Z,386.27
2023-05-07T15:17:09.299Z,5.72
2023-05-07T15:19:37.468Z,5.77
2023-05-07T15:22:06.788Z,5.75
2023-05-07T15:24:34.662Z,6.00
2023-05-07T15:27:04.113Z,6.00
2023-05-07T15:29:32.789Z,5.95
2023-05-07T15:32:01.785Z,5.38
2023-05-07T15:34:29.522Z,4.90
2023-05-07T15:36:58.342Z,5.35
2023-05-07T15:39:25.986Z,5.13
2023-05-07T15:41:54.075Z,4.50
2023-05-07T15:44:22.230Z,5.25
2023-05-07T15:46:50.677Z,5.25
2023-05-07T15:49:18.682Z,5.50
2023-05-07T15:51:46.655Z,5.95
2023-05-07T15:54:14.505Z,5.00
2023-05-07T15:56:42.027Z,5.90
2023-05-07T15:59:10.310Z,6.65
2023-05-07T16:01:38.084Z,5.55
2023-05-07T16:04:08.288Z,5.93
2023-05-07T16:06:35.864Z,5.40
2023-05-07T16:09:04.132Z,5.03
2023-05-07T16:11:34.011Z,5.25
2023-05-07T16:14:02.204Z,5.72
2023-05-07T16:16:34.063Z,4.80
2023-05-07T16:19:02.556Z,5.85
2023-05-07T16:21:30.942Z,5.85
2023-05-07T16:23:59.521Z,5.13
2023-05-07T16:26:27.198Z,5.25
2023-05-07T16:28:54.899Z,5.57
2023-05-07T16:31:22.695Z,5.95
2023-05-07T16:33:50.853Z,5.25
2023-05-07T16:36:19.513Z,5.60
2023-05-07T16:38:47.379Z,5.57
2023-05-07T16:41:15.602Z,5.60
2023-05-07T16:43:43.561Z,6.20
2023-05-07T16:46:11.984Z,6.20
2023-05-07T16:48:39.841Z,5.85
2023-05-07T16:51:08.429Z,6.63
2023-05-07T16:53:36.045Z,6.20
2023-05-07T16:56:06.736Z,6.38
2023-05-07T16:58:34.995Z,6.78
2023-05-07T17:01:02.713Z,6.63
2023-05-07T17:03:32.325Z,134.30
2023-05-07T17:06:00.177Z,8.68
2023-05-07T17:08:27.825Z,282.10
2023-05-07T17:10:55.842Z,100.93
2023-05-07T17:13:23.820Z,307.00
2023-05-07T17:15:53.922Z,156.57
2023-05-07T17:18:21.598Z,249.32
2023-05-07T17:20:49.609Z,174.15
2023-05-07T17:23:18.375Z,177.15
2023-05-07T17:25:46.377Z,132.27
2023-05-07T17:28:14.410Z,279.48
2023-05-07T17:30:42.718Z,329.88
2023-05-07T17:33:20.257Z,295.63
2023-05-07T17:35:50.221Z,315.95
2023-05-07T17:38:18.498Z,274.30
2023-05-07T17:40:47.016Z,253.98
2023-05-07T17:43:15.773Z,211.80
2023-05-07T17:45:43.407Z,187.07
2023-05-07T17:48:11.509Z,246.57
2023-05-07T17:50:39.737Z,230.68
2023-05-07T17:53:09.811Z,192.85
2023-05-07T17:55:42.355Z,289.23
2023-05-07T17:58:10.158Z,262.20
2023-05-07T18:00:39.100Z,239.10
2023-05-07T18:03:07.289Z,298.75
2023-05-07T18:05:38.255Z,196.32
2023-05-07T18:08:10.140Z,234.63
2023-05-07T18:10:37.885Z,266.33
2023-05-07T18:13:05.893Z,192.68
2023-05-07T18:15:33.551Z,164.20
2023-05-07T18:18:01.710Z,178.15
2023-05-07T18:20:29.921Z,172.60
2023-05-07T18:22:57.572Z,239.20
2023-05-07T18:25:25.121Z,248.02
2023-05-07T18:27:53.596Z,260.73
2023-05-07T18:30:25.162Z,228.20
2023-05-07T18:32:53.284Z,275.80
2023-05-07T18:35:23.378Z,458.27
2023-05-07T18:37:51.480Z,420.90
2023-05-07T18:40:21.078Z,527.17
2023-05-07T18:42:48.810Z,539.60
2023-05-07T18:45:16.604Z,460.92
2023-05-07T18:47:44.245Z,491.92
2023-05-07T18:50:12.277Z,453.80
2023-05-07T18:52:41.270Z,480.42
2023-05-07T18:55:11.795Z,434.87
2023-05-07T18:57:40.089Z,647.50
2023-05-07T19:00:09.328Z,468.05
2023-05-07T19:02:38.008Z,680.80
2023-05-07T19:05:07.008Z,705.72
2023-05-07T19:07:34.720Z,999.90
2023-05-07T19:10:05.720Z,282.00
2023-05-07T19:12:33.983Z,608.60
2023-05-07T19:15:01.572Z,491.02
2023-05-07T19:17:30.265Z,393.47
2023-05-07T19:19:58.414Z,389.05
2023-05-07T19:22:27.011Z,293.25
2023-05-07T19:24:54.960Z,315.48
2023-05-07T19:27:22.679Z,293.73
2023-05-07T19:29:51.122Z,161.40
2023-05-07T19:32:21.481Z,321.20
2023-05-07T19:34:50.178Z,204.30
2023-05-07T19:37:18.429Z,155.00
2023-05-07T19:39:46.701Z,308.30
2023-05-07T19:42:14.813Z,253.80
2023-05-07T19:44:42.451Z,222.82
2023-05-07T19:47:10.119Z,174.07
2023-05-07T19:49:37.795Z,130.05
2023-05-07T19:52:05.903Z,249.05
2023-05-07T19:54:33.656Z,232.43
2023-05-07T19:57:01.746Z,200.30
2023-05-07T19:59:29.765Z,319.85
2023-05-07T20:01:57.343Z,298.13
2023-05-07T20:04:33.042Z,354.55
2023-05-07T20:07:00.970Z,302.00
2023-05-07T20:09:29.161Z,297.70
2023-05-07T20:11:57.199Z,310.67
2023-05-07T20:14:25.017Z,300.42
2023-05-07T20:16:52.693Z,290.52
2023-05-07T20:19:20.585Z,272.30
2023-05-07T20:21:48.964Z,292.43
2023-05-07T20:24:19.255Z,282.15
2023-05-07T20:26:47.401Z,297.50
2023-05-07T20:29:15.621Z,323.10
2023-05-07T20:31:44.398Z,307.85
2023-05-07T20:34:12.651Z,277.52
2023-05-07T20:36:41.172Z,267.65
2023-05-07T20:39:09.707Z,285.67
2023-05-07T20:41:37.554Z,294.75
2023-05-07T20:44:05.768Z,322.73
2023-05-07T20:46:33.860Z,278.17
2023-05-07T20:49:01.555Z,256.10
2023-05-07T20:51:30.483Z,313.73
2023-05-07T20:53:58.224Z,267.95
2023-05-07T20:56:26.785Z,310.88
2023-05-07T20:58:54.516Z,280.80
2023-05-07T21:01:25.146Z,274.65
2023-05-07T21:03:54.284Z,277.27
2023-05-07T21:06:21.951Z,480.90
2023-05-07T21:08:49.504Z,415.13
2023-05-07T21:11:18.230Z,396.33
2023-05-07T21:13:46.761Z,375.50
2023-05-07T21:16:14.589Z,361.47
2023-05-07T21:18:42.408Z,373.85
2023-05-07T21:21:11.160Z,371.25
2023-05-07T21:23:38.810Z,356.58
2023-05-07T21:26:06.565Z,354.00
2023-05-07T21:28:34.739Z,346.77
2023-05-07T21:31:02.462Z,417.48
2023-05-07T21:33:30.694Z,372.27
2023-05-07T21:36:00.467Z,373.08
2023-05-07T21:38:28.114Z,343.02
2023-05-07T21:40:57.336Z,331.27
2023-05-07T21:43:25.101Z,341.17
2023-05-07T21:45:52.687Z,349.30
2023-05-07T21:48:23.821Z,346.88
2023-05-07T21:51:06.334Z,340.13
2023-05-07T21:53:35.314Z,318.55
2023-05-07T21:56:05.070Z,324.73
2023-05-07T21:58:33.392Z,109.40
2023-05-07T22:01:01.920Z,2.25
2023-05-07T22:03:30.244Z,1.45
2023-05-07T22:05:58.760Z,2.30
2023-05-07T22:08:26.430Z,1.65
2023-05-07T22:10:53.948Z,1.67
2023-05-07T22:13:21.639Z,1.88
2023-05-07T22:15:57.295Z,1.80
2023-05-07T22:18:26.867Z,1.35
2023-05-07T22:20:54.779Z,1.65
2023-05-07T22:23:23.044Z,1.73
2023-05-07T22:25:50.753Z,2.38
2023-05-07T22:28:19.064Z,2.63
2023-05-07T22:30:48.259Z,4.20
2023-05-07T22:33:15.880Z,3.22
2023-05-07T22:35:43.530Z,5.00
2023-05-07T22:38:11.342Z,2.88
2023-05-07T22:40:39.882Z,3.30
2023-05-07T22:43:07.538Z,2.90
2023-05-07T22:45:35.905Z,3.08
2023-05-07T22:48:04.200Z,2.53
2023-05-07T22:50:32.276Z,2.92
2023-05-07T22:52:59.955Z,3.30
2023-05-07T22:55:27.505Z,2.78
2023-05-07T22:57:55.299Z,3.08
2023-05-07T23:00:22.949Z,3.22
2023-05-07T23:02:51.649Z,2.90
2023-05-07T23:05:20.530Z,4.18
2023-05-07T23:07:48.495Z,3.35
2023-05-07T23:10:16.624Z,3.10
2023-05-07T23:12:49.102Z,3.53
2023-05-07T23:15:18.082Z,3.57
2023-05-07T23:17:47.728Z,3.53
2023-05-07T23:20:15.725Z,4.07
2023-05-07T23:22:43.229Z,3.87
2023-05-07T23:25:11.449Z,3.00
2023-05-07T23:27:39.675Z,2.47
2023-05-07T23:30:08.870Z,2.70
2023-05-07T23:32:37.014Z,2.50
2023-05-07T23:35:05.676Z,2.30
2023-05-07T23:37:33.205Z,3.37
2023-05-07T23:40:01.376Z,3.03
2023-05-07T23:42:29.410Z,2.42
2023-05-07T23:44:57.717Z,2.63
2023-05-07T23:47:25.930Z,261.38
2023-05-07T23:49:53.591Z,2.78
2023-05-07T23:52:22.085Z,2.60
2023-05-07T23:54:49.923Z,2.92
2023-05-07T23:57:17.697Z,2.70
2023-05-07T23:59:45.420Z,2.55
